Time;durP1;ratioP1;P1;durP2;ratioP2;P2;SDS_P1;SDS_P2;PMS_P1;PMS_P2;Temp;Humidity;BMP_temperature;BMP_pressure;BME280_temperature;BME280_humidity;BME280_pressure;Samples;Min_cycle;Max_cycle;Signal;HPM_P1;HPM_P2
2023/12/03 00:02:07;;;;;;;18.88;17.25;;;-0.80;1.00;;;;;;4883537;29;20251;-51
2023/12/03 00:04:33;;;;;;;20.33;18.48;;;-0.70;1.00;;;;;;4885740;29;20543;-54
2023/12/03 00:06:59;;;;;;;20.10;18.20;;;-0.70;1.00;;;;;;4885234;29;20197;-53
2023/12/03 00:09:25;;;;;;;21.70;18.67;;;-0.70;1.00;;;;;;4885450;29;20182;-53
2023/12/03 00:11:50;;;;;;;20.07;18.20;;;-0.70;1.00;;;;;;4885851;29;20177;-54
2023/12/03 00:14:16;;;;;;;21.07;18.77;;;-0.70;1.00;;;;;;4889284;29;20477;-52
2023/12/03 00:16:42;;;;;;;20.43;18.53;;;-0.70;1.00;;;;;;4889972;29;20229;-56
2023/12/03 00:19:07;;;;;;;19.70;17.90;;;-0.80;1.00;;;;;;4889227;29;20197;-54
2023/12/03 00:21:33;;;;;;;18.83;17.03;;;-0.80;1.00;;;;;;4889581;29;20220;-53
2023/12/03 00:23:59;;;;;;;19.30;17.50;;;-0.70;1.00;;;;;;4888741;29;20351;-51
2023/12/03 00:26:24;;;;;;;19.50;17.50;;;-0.80;1.00;;;;;;4888825;29;20188;-52
2023/12/03 00:28:50;;;;;;;19.53;17.93;;;-0.80;1.00;;;;;;4880332;29;20310;-53
2023/12/03 00:31:15;;;;;;;19.30;17.57;;;-0.70;1.00;;;;;;4871461;29;20785;-41
2023/12/03 00:33:41;;;;;;;23.13;17.53;;;-0.80;1.00;;;;;;4880460;29;20626;-41
2023/12/03 00:36:07;;;;;;;19.63;17.70;;;-0.80;1.00;;;;;;4883609;29;20254;-40
2023/12/03 00:38:32;;;;;;;21.57;19.37;;;-0.70;1.00;;;;;;4876401;29;20196;-41
2023/12/03 00:40:58;;;;;;;19.87;18.17;;;-0.70;1.00;;;;;;4873491;29;20499;-41
2023/12/03 00:43:23;;;;;;;20.53;18.70;;;-0.70;1.00;;;;;;4874912;29;20318;-40
2023/12/03 00:45:51;;;;;;;20.10;18.40;;;-0.70;1.00;;;;;;4872645;29;20185;-40
2023/12/03 00:48:17;;;;;;;20.33;18.40;;;-0.70;1.00;;;;;;4876130;29;20184;-41
2023/12/03 00:50:43;;;;;;;21.23;19.07;;;-0.70;1.00;;;;;;4881176;29;20191;-41
2023/12/03 00:53:08;;;;;;;20.87;18.83;;;-0.70;1.00;;;;;;4878764;29;20194;-40
2023/12/03 00:55:34;;;;;;;20.20;18.20;;;-0.70;1.00;;;;;;4881585;29;20401;-41
2023/12/03 00:57:59;;;;;;;20.93;18.83;;;-0.70;1.00;;;;;;4871271;29;20201;-40
2023/12/03 01:00:25;;;;;;;21.33;19.40;;;-0.70;1.00;;;;;;4877902;29;20198;-52
2023/12/03 01:02:51;;;;;;;20.20;18.30;;;-0.70;1.00;;;;;;4871728;29;20204;-54
2023/12/03 01:05:17;;;;;;;18.50;16.67;;;-0.70;1.00;;;;;;4873307;29;20199;-57
2023/12/03 01:07:42;;;;;;;21.02;19.15;;;-0.70;1.00;;;;;;4880141;29;20385;-56
2023/12/03 01:10:08;;;;;;;20.87;18.97;;;-0.70;1.00;;;;;;4877356;29;20203;-54
2023/12/03 01:12:34;;;;;;;20.90;18.43;;;-0.60;1.00;;;;;;4876695;29;20201;-55
2023/12/03 01:14:59;;;;;;;18.87;17.17;;;-0.70;1.00;;;;;;4886012;29;20465;-52
2023/12/03 01:17:25;;;;;;;20.40;18.60;;;-0.80;1.00;;;;;;4879164;29;20598;-56
2023/12/03 01:19:51;;;;;;;21.40;19.20;;;-0.90;1.00;;;;;;4886056;29;20224;-55
2023/12/03 01:22:16;;;;;;;19.90;18.10;;;-0.80;1.00;;;;;;4887731;29;20200;-54
2023/12/03 01:24:42;;;;;;;21.33;18.87;;;-0.90;1.00;;;;;;4875625;29;21973;-54
2023/12/03 01:27:07;;;;;;;19.70;17.93;;;-1.00;1.00;;;;;;4877823;29;20228;-52
2023/12/03 01:29:33;;;;;;;20.53;18.63;;;-1.00;1.00;;;;;;4888052;29;20198;-56
2023/12/03 01:31:59;;;;;;;21.20;18.97;;;-1.10;1.00;;;;;;4870623;29;20534;-55
2023/12/03 01:34:24;;;;;;;22.83;19.93;;;-1.10;1.00;;;;;;4888094;29;20193;-55
2023/12/03 01:36:50;;;;;;;21.10;19.17;;;-1.20;1.00;;;;;;4888131;29;20253;-53
2023/12/03 01:39:15;;;;;;;21.00;18.90;;;-1.20;1.00;;;;;;4887463;29;20199;-56
2023/12/03 01:41:41;;;;;;;22.00;19.77;;;-1.30;1.00;;;;;;4887862;29;20769;-56
2023/12/03 01:44:07;;;;;;;19.90;17.97;;;-1.30;1.00;;;;;;4887855;29;20239;-53
2023/12/03 01:46:33;;;;;;;21.10;19.00;;;-1.40;1.00;;;;;;4887781;29;20683;-51
2023/12/03 01:48:59;;;;;;;20.80;18.80;;;-1.40;1.00;;;;;;4887613;29;20197;-55
2023/12/03 01:51:26;;;;;;;23.20;19.50;;;-1.40;1.00;;;;;;4887258;29;20193;-53
2023/12/03 01:53:53;;;;;;;20.38;18.40;;;-1.50;1.00;;;;;;4887256;29;20259;-54
2023/12/03 01:56:19;;;;;;;22.13;19.90;;;-1.40;2.20;;;;;;4887271;29;20203;-55
2023/12/03 01:58:45;;;;;;;25.13;20.93;;;-1.40;2.10;;;;;;4886415;29;20189;-56
2023/12/03 02:01:11;;;;;;;21.70;19.50;;;-1.40;1.00;;;;;;4887091;29;21231;-56
2023/12/03 02:03:36;;;;;;;25.20;19.70;;;-1.40;3.50;;;;;;4885989;29;20305;-52
2023/12/03 02:06:07;;;;;;;21.43;19.30;;;-1.50;5.70;;;;;;4887085;29;20318;-55
2023/12/03 02:08:33;;;;;;;22.00;18.73;;;-1.40;6.50;;;;;;4887622;29;20590;-52
2023/12/03 02:11:00;;;;;;;21.98;19.63;;;-1.40;1.20;;;;;;4886784;29;20656;-55
2023/12/03 02:13:29;;;;;;;22.20;19.73;;;-1.40;1.00;;;;;;4886274;29;20196;-52
2023/12/03 02:15:55;;;;;;;22.08;19.73;;;-1.40;1.00;;;;;;4887472;29;20255;-55
2023/12/03 02:18:20;;;;;;;21.23;19.33;;;-1.40;1.00;;;;;;4887266;29;20189;-53
2023/12/03 02:20:46;;;;;;;22.60;19.67;;;-1.50;1.00;;;;;;4887031;29;20436;-53
2023/12/03 02:23:13;;;;;;;20.70;18.80;;;-1.50;1.00;;;;;;4887448;29;21379;-55
2023/12/03 02:25:39;;;;;;;21.55;19.20;;;-1.50;3.90;;;;;;4869343;29;20238;-55
2023/12/03 02:28:05;;;;;;;21.50;19.20;;;-1.50;5.00;;;;;;4887416;29;20599;-51
2023/12/03 02:30:30;;;;;;;21.30;19.40;;;-1.50;7.50;;;;;;4884938;29;20252;-55
2023/12/03 02:32:56;;;;;;;22.47;20.07;;;-1.50;12.10;;;;;;4886868;29;20198;-56
2023/12/03 02:35:21;;;;;;;21.40;19.30;;;-1.40;13.40;;;;;;4886203;29;20271;-40
2023/12/03 02:37:47;;;;;;;22.10;19.80;;;-1.40;7.80;;;;;;4887060;29;20196;-41
2023/12/03 02:40:13;;;;;;;22.17;19.77;;;-1.40;7.70;;;;;;4886738;29;20880;-41
2023/12/03 02:42:38;;;;;;;21.20;19.10;;;-1.30;10.30;;;;;;4886451;29;20243;-40
2023/12/03 02:45:05;;;;;;;21.30;19.27;;;-1.20;5.70;;;;;;4886882;29;20666;-40
2023/12/03 02:47:30;;;;;;;21.10;18.98;;;-1.30;1.00;;;;;;4886280;29;20213;-40
2023/12/03 02:49:56;;;;;;;21.80;19.63;;;-1.30;1.00;;;;;;4886325;29;20322;-40
2023/12/03 02:52:22;;;;;;;24.03;19.00;;;-1.20;1.00;;;;;;4886673;29;20190;-43
2023/12/03 02:54:47;;;;;;;21.03;18.93;;;-1.20;1.00;;;;;;4886399;29;20201;-42
2023/12/03 02:57:13;;;;;;;22.30;19.90;;;-1.20;1.00;;;;;;4886569;29;20194;-41
2023/12/03 02:59:38;;;;;;;21.17;19.13;;;-1.20;1.00;;;;;;4885585;29;20192;-42
2023/12/03 03:02:04;;;;;;;22.63;19.57;;;-1.20;1.00;;;;;;4885318;29;20228;-40
2023/12/03 03:04:30;;;;;;;21.93;19.63;;;-1.20;1.00;;;;;;4885855;29;20256;-41
2023/12/03 03:06:55;;;;;;;21.80;19.63;;;-1.30;1.00;;;;;;4869190;29;20194;-40
2023/12/03 03:12:43;;;;;;;25.42;19.05;;;-1.30;1.00;;;;;;4886060;29;20286;-41
2023/12/03 03:15:09;;;;;;;21.43;19.20;;;-1.40;1.00;;;;;;4886244;29;20188;-41
2023/12/03 03:17:34;;;;;;;26.57;20.87;;;-1.40;1.00;;;;;;4885572;29;20580;-40
2023/12/03 03:20:00;;;;;;;22.90;20.50;;;-1.30;1.00;;;;;;4886214;29;20417;-40
2023/12/03 03:22:25;;;;;;;23.37;21.00;;;-1.30;1.00;;;;;;4886154;29;20187;-40
2023/12/03 03:24:52;;;;;;;22.27;19.70;;;-1.30;1.10;;;;;;4886110;29;20191;-41
2023/12/03 03:27:18;;;;;;;22.05;19.90;;;-1.30;1.00;;;;;;4880068;29;20705;-40
2023/12/03 03:29:43;;;;;;;21.97;19.70;;;-1.20;2.10;;;;;;4873822;29;20189;-40
2023/12/03 03:32:09;;;;;;;24.40;20.67;;;-1.20;2.90;;;;;;4878473;29;20425;-40
2023/12/03 03:34:35;;;;;;;23.97;20.50;;;-1.20;5.30;;;;;;4878595;29;20252;-41
2023/12/03 03:37:00;;;;;;;24.87;20.33;;;-1.20;3.50;;;;;;4878431;29;20481;-40
2023/12/03 03:39:26;;;;;;;23.17;19.60;;;-1.10;1.40;;;;;;4879157;29;20202;-40
2023/12/03 03:41:51;;;;;;;21.27;19.17;;;-1.00;1.00;;;;;;4871322;29;20436;-42
2023/12/03 03:44:17;;;;;;;22.60;20.17;;;-1.00;1.10;;;;;;4878740;29;20262;-41
2023/12/03 03:46:43;;;;;;;23.67;21.10;;;-0.90;1.00;;;;;;4851646;29;20186;-41
2023/12/03 03:49:09;;;;;;;22.40;20.00;;;-0.90;1.00;;;;;;4872477;29;20251;-41
2023/12/03 03:51:35;;;;;;;22.52;20.23;;;-0.90;1.00;;;;;;4869779;29;20184;-40
2023/12/03 03:54:00;;;;;;;22.40;20.10;;;-0.80;1.00;;;;;;4879245;29;20209;-40
2023/12/03 03:56:26;;;;;;;22.53;20.23;;;-0.70;1.00;;;;;;4874026;29;20661;-40
2023/12/03 03:58:52;;;;;;;21.60;19.27;;;-0.70;1.00;;;;;;4878868;29;20195;-40
2023/12/03 04:01:17;;;;;;;21.73;19.53;;;-0.70;1.00;;;;;;4868507;29;20580;-39
2023/12/03 04:03:43;;;;;;;26.13;20.63;;;-0.80;1.00;;;;;;4869096;29;20302;-40
2023/12/03 04:06:09;;;;;;;20.90;18.90;;;-0.70;1.00;;;;;;4871470;29;20200;-42
2023/12/03 04:08:34;;;;;;;21.17;19.10;;;-0.70;1.00;;;;;;4872860;29;20199;-42
2023/12/03 04:11:07;;;;;;;23.87;20.30;;;-0.70;1.00;;;;;;4876849;29;20460;-41
2023/12/03 04:13:32;;;;;;;24.63;20.77;;;-0.70;1.00;;;;;;4881628;29;20239;-42
2023/12/03 04:15:58;;;;;;;21.40;19.07;;;-0.70;1.00;;;;;;4884794;29;20195;-42
2023/12/03 04:18:24;;;;;;;20.80;18.63;;;-0.60;1.00;;;;;;4869324;29;20201;-42
2023/12/03 04:20:50;;;;;;;23.40;19.95;;;-0.60;1.00;;;;;;4873536;29;20293;-41
2023/12/03 04:23:16;;;;;;;21.10;19.10;;;-0.50;1.00;;;;;;4883561;29;20305;-41
2023/12/03 04:25:42;;;;;;;21.63;19.23;;;-0.50;1.00;;;;;;4858638;29;20300;-41
2023/12/03 04:28:09;;;;;;;21.30;19.17;;;-0.50;1.00;;;;;;4880114;29;20223;-41
2023/12/03 04:30:34;;;;;;;21.52;19.42;;;-0.40;1.00;;;;;;4885577;29;20209;-40
2023/12/03 04:33:00;;;;;;;23.73;21.37;;;-0.40;1.00;;;;;;4885129;29;20706;-40
2023/12/03 04:35:26;;;;;;;21.80;19.50;;;-0.40;1.00;;;;;;4885739;29;20202;-40
2023/12/03 04:37:51;;;;;;;21.53;19.33;;;-0.40;1.00;;;;;;4885423;29;21090;-40
2023/12/03 04:40:17;;;;;;;21.07;18.97;;;-0.30;1.00;;;;;;4885315;29;20198;-40
2023/12/03 04:42:43;;;;;;;21.00;19.07;;;-0.30;1.00;;;;;;4885183;29;20289;-40
2023/12/03 04:45:09;;;;;;;22.05;19.85;;;-0.40;1.00;;;;;;4884480;29;20211;-55
2023/12/03 04:47:34;;;;;;;22.77;19.57;;;-0.40;1.00;;;;;;4885111;29;20187;-54
2023/12/03 04:50:00;;;;;;;21.53;19.43;;;-0.30;1.00;;;;;;4884832;29;20217;-52
2023/12/03 04:52:25;;;;;;;21.20;19.00;;;-0.30;1.00;;;;;;4885171;29;20645;-56
2023/12/03 04:54:51;;;;;;;20.60;18.60;;;-0.30;1.00;;;;;;4885218;29;20194;-53
2023/12/03 04:57:16;;;;;;;21.20;19.10;;;-0.30;1.00;;;;;;4884559;29;20185;-53
2023/12/03 04:59:42;;;;;;;22.80;20.47;;;-0.30;1.00;;;;;;4887265;29;20214;-50
2023/12/03 05:02:08;;;;;;;20.17;18.17;;;-0.20;1.00;;;;;;4888269;29;20279;-51
2023/12/03 05:04:33;;;;;;;21.00;18.80;;;-0.30;1.00;;;;;;4888554;29;20213;-52
2023/12/03 05:06:59;;;;;;;21.20;19.27;;;-0.30;1.00;;;;;;4871467;29;20194;-55
2023/12/03 05:09:24;;;;;;;21.10;19.00;;;-0.30;1.00;;;;;;4888186;29;20198;-55
2023/12/03 05:11:50;;;;;;;21.27;19.10;;;-0.20;1.00;;;;;;4888175;29;20198;-56
2023/12/03 05:14:15;;;;;;;20.60;18.50;;;-0.30;1.00;;;;;;4888354;29;20589;-54
2023/12/03 05:16:41;;;;;;;20.30;18.50;;;-0.30;1.00;;;;;;4888444;29;20197;-55
2023/12/03 05:19:07;;;;;;;20.33;18.37;;;-0.30;1.00;;;;;;4889263;29;20187;-53
2023/12/03 05:21:32;;;;;;;19.07;17.27;;;-0.20;1.00;;;;;;4888510;29;21226;-49
2023/12/03 05:23:58;;;;;;;20.10;17.97;;;-0.20;1.00;;;;;;4887329;29;20261;-54
2023/12/03 05:26:24;;;;;;;20.70;18.90;;;-0.20;1.00;;;;;;4887791;29;20179;-56
2023/12/03 05:28:50;;;;;;;20.60;18.60;;;-0.20;1.00;;;;;;4877811;29;20199;-53
2023/12/03 05:31:15;;;;;;;19.30;17.37;;;-0.20;1.00;;;;;;4879598;29;20420;-50
2023/12/03 05:33:42;;;;;;;20.97;18.87;;;-0.20;1.00;;;;;;4869601;29;20196;-51
2023/12/03 05:36:08;;;;;;;19.75;17.95;;;-0.20;1.00;;;;;;4876581;29;20702;-51
2023/12/03 05:38:34;;;;;;;19.88;18.08;;;-0.10;1.00;;;;;;4873013;29;20195;-53
2023/12/03 05:40:59;;;;;;;20.40;18.37;;;-0.10;1.00;;;;;;4880389;29;20196;-56
2023/12/03 05:43:25;;;;;;;20.40;18.50;;;-0.10;1.00;;;;;;4876596;29;20721;-40
2023/12/03 05:45:51;;;;;;;19.40;17.70;;;-0.10;1.00;;;;;;4883428;29;20210;-41
2023/12/03 05:48:16;;;;;;;19.27;17.60;;;-0.10;1.00;;;;;;4875687;29;20175;-40
2023/12/03 05:50:42;;;;;;;19.10;17.20;;;-0.10;1.00;;;;;;4876954;29;20179;-40
2023/12/03 05:53:07;;;;;;;20.33;18.63;;;-0.10;1.00;;;;;;4881565;29;21244;-40
2023/12/03 05:55:33;;;;;;;19.63;17.67;;;-0.10;1.00;;;;;;4871382;29;20934;-40
2023/12/03 05:57:59;;;;;;;17.70;16.00;;;-0.10;1.00;;;;;;4874724;29;20184;-39
2023/12/03 06:00:24;;;;;;;19.70;17.90;;;-0.10;1.00;;;;;;4868952;29;20192;-40
2023/12/03 06:02:50;;;;;;;19.13;17.43;;;-0.10;1.00;;;;;;4865189;29;20302;-40
2023/12/03 06:05:16;;;;;;;20.70;18.70;;;-0.20;1.00;;;;;;4875379;29;20211;-40
2023/12/03 06:07:41;;;;;;;20.77;18.77;;;-0.20;1.00;;;;;;4872871;29;20251;-41
2023/12/03 06:10:08;;;;;;;19.50;17.47;;;-0.20;1.00;;;;;;4874286;29;20443;-40
2023/12/03 06:12:33;;;;;;;19.30;17.55;;;-0.30;1.00;;;;;;4871754;29;20192;-41
2023/12/03 06:14:59;;;;;;;19.90;18.00;;;-0.30;1.00;;;;;;4876480;29;20198;-40
2023/12/03 06:17:25;;;;;;;18.00;16.40;;;-0.30;1.00;;;;;;4880808;29;20286;-40
2023/12/03 06:19:50;;;;;;;18.97;17.00;;;-0.30;1.00;;;;;;4870591;29;20195;-40
2023/12/03 06:22:16;;;;;;;19.27;17.57;;;-0.30;1.00;;;;;;4876618;29;20431;-40
2023/12/03 06:24:42;;;;;;;19.40;17.50;;;-0.30;1.00;;;;;;4872936;29;20613;-40
2023/12/03 06:27:07;;;;;;;18.40;16.77;;;-0.40;1.00;;;;;;4876156;29;20236;-41
2023/12/03 06:29:33;;;;;;;20.40;18.27;;;-0.30;1.00;;;;;;4871813;29;20225;-41
2023/12/03 06:31:58;;;;;;;20.90;18.67;;;-0.30;1.00;;;;;;4876096;29;20191;-41
2023/12/03 06:34:24;;;;;;;19.00;17.17;;;-0.30;1.00;;;;;;4873264;29;20199;-40
2023/12/03 06:36:49;;;;;;;20.67;18.07;;;-0.30;1.00;;;;;;4881152;29;20202;-42
2023/12/03 06:39:15;;;;;;;20.70;18.70;;;-0.40;1.00;;;;;;4874662;29;21156;-40
2023/12/03 06:41:40;;;;;;;19.00;17.40;;;-0.30;1.00;;;;;;4870133;29;20194;-47
2023/12/03 06:44:06;;;;;;;20.83;18.73;;;-0.40;1.00;;;;;;4875440;29;20259;-40
2023/12/03 06:46:41;;;;;;;20.47;18.53;;;-0.30;1.00;;;;;;4871599;29;20284;-44
2023/12/03 06:49:07;;;;;;;20.45;18.15;;;-0.30;1.00;;;;;;4877984;29;20194;-54
2023/12/03 06:51:33;;;;;;;20.63;18.73;;;-0.20;1.00;;;;;;4869177;29;20187;-52
2023/12/03 06:54:02;;;;;;;20.42;18.60;;;-0.20;1.00;;;;;;4873235;29;20226;-55
2023/12/03 06:56:28;;;;;;;20.08;18.20;;;-0.20;1.00;;;;;;4876670;29;20201;-52
2023/12/03 06:58:53;;;;;;;19.70;17.60;;;-0.10;1.00;;;;;;4878015;29;20187;-55
2023/12/03 07:01:19;;;;;;;19.73;17.80;;;-0.10;1.00;;;;;;4870751;29;20199;-54
2023/12/03 07:03:45;;;;;;;21.23;18.90;;;0.00;1.00;;;;;;4882070;29;20215;-53
2023/12/03 07:06:12;;;;;;;19.38;17.35;;;0.00;1.00;;;;;;4871718;29;20274;-55
2023/12/03 07:08:38;;;;;;;20.15;18.05;;;0.00;1.00;;;;;;4875969;29;20270;-55
2023/12/03 07:11:04;;;;;;;23.07;19.07;;;0.00;1.00;;;;;;4869340;29;20187;-40
2023/12/03 07:13:29;;;;;;;20.80;18.77;;;-0.10;1.00;;;;;;4872474;29;20203;-41
2023/12/03 07:15:55;;;;;;;22.27;19.87;;;0.00;1.00;;;;;;4871482;29;20219;-41
2023/12/03 07:18:21;;;;;;;19.83;17.93;;;0.00;1.00;;;;;;4871019;29;20195;-40
2023/12/03 07:20:46;;;;;;;20.43;18.33;;;0.00;1.00;;;;;;4867488;29;20188;-40
2023/12/03 07:23:12;;;;;;;21.30;19.07;;;0.00;1.00;;;;;;4867775;29;20565;-42
2023/12/03 07:25:37;;;;;;;19.83;17.73;;;0.00;1.00;;;;;;4878071;29;20199;-41
2023/12/03 07:28:03;;;;;;;21.10;18.90;;;0.00;1.00;;;;;;4879520;29;20261;-54
2023/12/03 07:30:29;;;;;;;20.70;18.60;;;0.00;1.00;;;;;;4884514;29;20201;-54
2023/12/03 07:32:54;;;;;;;22.30;20.20;;;0.00;1.00;;;;;;4885174;29;20462;-54
2023/12/03 07:35:20;;;;;;;20.87;18.67;;;0.00;1.00;;;;;;4884730;29;20233;-53
2023/12/03 07:37:45;;;;;;;19.77;17.93;;;0.00;1.00;;;;;;4883462;29;20199;-53
2023/12/03 07:40:11;;;;;;;20.47;18.40;;;0.10;1.00;;;;;;4884393;29;21035;-41
2023/12/03 07:42:37;;;;;;;20.20;18.07;;;0.10;1.00;;;;;;4883452;29;20198;-41
2023/12/03 07:45:02;;;;;;;22.00;19.80;;;0.10;1.00;;;;;;4883632;29;20555;-41
2023/12/03 07:47:29;;;;;;;20.10;18.20;;;0.20;1.00;;;;;;4872610;29;20223;-40
2023/12/03 07:49:55;;;;;;;22.08;19.80;;;0.20;1.00;;;;;;4875412;29;20218;-41
2023/12/03 07:52:21;;;;;;;20.57;18.47;;;0.20;1.00;;;;;;4883850;29;20848;-41
2023/12/03 07:54:46;;;;;;;21.57;19.17;;;0.30;1.00;;;;;;4883919;29;20431;-41
2023/12/03 07:57:12;;;;;;;24.07;21.30;;;0.30;1.00;;;;;;4884753;29;20237;-41
2023/12/03 07:59:38;;;;;;;21.57;19.30;;;0.30;1.00;;;;;;4885358;29;20198;-42
2023/12/03 08:02:04;;;;;;;20.17;18.10;;;0.40;1.00;;;;;;4883220;29;20490;-41
2023/12/03 08:04:30;;;;;;;20.90;18.80;;;0.40;1.00;;;;;;4881029;29;20896;-41
2023/12/03 08:06:55;;;;;;;21.47;19.47;;;0.50;1.00;;;;;;4879277;29;20243;-41
2023/12/03 08:09:21;;;;;;;20.30;18.17;;;0.50;1.00;;;;;;4881879;29;20189;-42
2023/12/03 08:11:46;;;;;;;20.40;18.17;;;0.50;1.00;;;;;;4878582;29;20183;-42
2023/12/03 08:14:12;;;;;;;19.50;17.73;;;0.40;1.00;;;;;;4884225;29;20653;-42
2023/12/03 08:20:10;;;;;;;20.38;18.40;;;0.50;1.00;;;;;;4888973;29;20198;-41
2023/12/03 08:22:43;;;;;;;20.73;18.73;;;0.50;1.00;;;;;;4883912;29;20298;-44
2023/12/03 08:25:09;;;;;;;22.57;20.33;;;0.50;1.00;;;;;;4883587;29;20201;-41
2023/12/03 08:27:35;;;;;;;19.57;17.53;;;0.30;1.00;;;;;;4876666;29;20230;-41
2023/12/03 08:30:01;;;;;;;22.77;20.37;;;0.30;1.00;;;;;;4884249;29;20259;-43
2023/12/03 08:32:26;;;;;;;21.07;18.90;;;0.40;1.00;;;;;;4884819;29;20205;-44
2023/12/03 08:34:52;;;;;;;21.67;19.47;;;0.40;1.00;;;;;;4888090;29;21382;-42
2023/12/03 08:37:18;;;;;;;20.93;18.03;;;0.40;1.00;;;;;;4886936;29;20199;-46
2023/12/03 08:39:44;;;;;;;20.50;18.20;;;0.40;1.00;;;;;;4881225;29;20195;-40
2023/12/03 08:42:10;;;;;;;21.87;18.37;;;0.40;1.00;;;;;;4886784;29;21331;-43
2023/12/03 08:44:35;;;;;;;20.63;18.53;;;0.40;1.00;;;;;;4886496;29;20238;-42
2023/12/03 08:47:01;;;;;;;19.10;17.40;;;0.40;1.00;;;;;;4886753;29;20187;-42
2023/12/03 08:49:27;;;;;;;19.40;17.55;;;0.50;1.00;;;;;;4887800;29;20199;-42
2023/12/03 08:51:53;;;;;;;18.90;17.02;;;0.40;1.00;;;;;;4885823;29;20571;-43
2023/12/03 08:54:19;;;;;;;20.33;17.37;;;0.40;1.00;;;;;;4887792;29;20227;-41
2023/12/03 08:56:44;;;;;;;19.37;17.47;;;0.40;1.00;;;;;;4885391;29;20654;-50
2023/12/03 08:59:10;;;;;;;19.50;17.80;;;0.40;1.00;;;;;;4887453;29;20491;-42
2023/12/03 09:01:40;;;;;;;19.70;17.70;;;0.30;1.00;;;;;;4888393;29;20199;-43
2023/12/03 09:04:05;;;;;;;20.08;17.98;;;0.30;1.00;;;;;;4887496;29;20879;-42
2023/12/03 09:06:31;;;;;;;21.33;17.40;;;0.30;1.00;;;;;;4886752;29;20215;-42
2023/12/03 09:08:57;;;;;;;19.30;17.40;;;0.30;1.00;;;;;;4888011;29;20191;-41
2023/12/03 09:11:23;;;;;;;20.23;18.40;;;0.30;1.00;;;;;;4879465;29;20195;-41
2023/12/03 09:13:49;;;;;;;19.10;17.27;;;0.40;1.00;;;;;;4886326;29;20235;-43
2023/12/03 09:16:14;;;;;;;20.38;17.35;;;0.40;1.00;;;;;;4887747;29;20194;-41
2023/12/03 09:18:40;;;;;;;19.80;17.90;;;0.40;1.00;;;;;;4885328;29;20201;-52
2023/12/03 09:21:12;;;;;;;20.17;18.27;;;0.50;1.00;;;;;;4887677;29;20717;-53
2023/12/03 09:23:38;;;;;;;21.00;18.90;;;0.60;1.00;;;;;;4887782;29;20234;-55
2023/12/03 09:26:04;;;;;;;21.30;19.30;;;0.70;1.00;;;;;;4886724;29;20195;-56
2023/12/03 09:28:32;;;;;;;22.58;19.58;;;0.70;1.00;;;;;;4883054;29;20234;-54
2023/12/03 09:30:58;;;;;;;21.45;19.25;;;0.80;1.00;;;;;;4886219;29;20226;-57
2023/12/03 09:33:26;;;;;;;20.87;18.87;;;0.80;1.00;;;;;;4885667;29;20226;-56
2023/12/03 09:35:52;;;;;;;22.30;20.10;;;0.90;1.00;;;;;;4886767;29;20443;-53
2023/12/03 09:38:18;;;;;;;21.42;19.40;;;0.90;1.00;;;;;;4885789;29;20227;-53
2023/12/03 09:40:44;;;;;;;20.93;18.73;;;0.90;1.00;;;;;;4886783;29;20658;-53
2023/12/03 09:43:10;;;;;;;21.83;19.80;;;0.90;1.00;;;;;;4885794;29;20210;-54
2023/12/03 09:45:36;;;;;;;22.48;20.10;;;0.90;1.00;;;;;;4886255;29;20202;-56
2023/12/03 09:48:03;;;;;;;20.60;18.50;;;0.90;1.00;;;;;;4885648;29;20643;-56
2023/12/03 09:50:34;;;;;;;20.77;18.70;;;0.90;1.00;;;;;;4886864;29;20191;-55
2023/12/03 09:53:02;;;;;;;22.55;20.17;;;0.90;1.00;;;;;;4876720;29;20290;-58
2023/12/03 09:55:27;;;;;;;22.35;20.42;;;0.90;1.00;;;;;;4881581;29;20202;-58
2023/12/03 09:57:59;;;;;;;18.97;17.23;;;0.80;1.00;;;;;;4886503;29;20215;-56
2023/12/03 10:00:24;;;;;;;20.27;18.27;;;0.80;1.00;;;;;;4886831;29;20246;-56
2023/12/03 10:02:53;;;;;;;19.37;17.57;;;0.80;1.00;;;;;;4868637;29;20682;-57
2023/12/03 10:05:19;;;;;;;19.08;17.27;;;0.70;1.00;;;;;;4884212;29;20676;-57
2023/12/03 10:07:47;;;;;;;19.90;17.97;;;0.70;1.00;;;;;;4885236;29;20196;-57
2023/12/03 10:10:16;;;;;;;18.63;16.92;;;0.60;1.00;;;;;;4886363;29;20278;-52
2023/12/03 10:12:42;;;;;;;16.70;15.27;;;0.60;1.00;;;;;;4884629;29;20205;-57
2023/12/03 10:15:12;;;;;;;19.08;17.30;;;0.60;1.00;;;;;;4868580;29;20227;-56
2023/12/03 10:17:38;;;;;;;18.02;16.33;;;0.60;1.00;;;;;;4868294;29;20298;-59
2023/12/03 10:20:27;;;;;;;18.70;16.55;;;0.60;1.00;;;;;;4885802;29;20274;-56
2023/12/03 10:22:57;;;;;;;17.65;16.15;;;0.40;1.00;;;;;;4869598;29;20584;-60
2023/12/03 10:25:32;;;;;;;18.20;16.50;;;0.40;1.00;;;;;;4884986;29;20223;-58
2023/12/03 10:28:04;;;;;;;17.20;15.70;;;0.40;1.00;;;;;;4886081;29;20222;-56
2023/12/03 10:30:30;;;;;;;19.45;17.45;;;0.50;1.00;;;;;;4886567;29;20197;-54
2023/12/03 10:32:56;;;;;;;18.80;16.83;;;0.40;1.00;;;;;;4885113;29;20195;-57
2023/12/03 10:35:23;;;;;;;17.20;15.63;;;0.30;1.00;;;;;;4886364;29;21088;-56
2023/12/03 10:37:50;;;;;;;18.55;16.75;;;0.20;1.00;;;;;;4885604;29;20436;-59
2023/12/03 10:40:16;;;;;;;17.10;15.60;;;0.30;1.00;;;;;;4883277;29;20203;-59
2023/12/03 10:42:44;;;;;;;19.60;17.70;;;0.30;1.00;;;;;;4885618;29;20191;-59
2023/12/03 10:45:11;;;;;;;18.25;16.50;;;0.30;1.00;;;;;;4884895;29;20245;-43
2023/12/03 10:47:37;;;;;;;18.25;16.45;;;0.40;1.00;;;;;;4885103;29;20175;-43
2023/12/03 10:50:05;;;;;;;19.17;17.42;;;0.50;1.00;;;;;;4886172;29;20522;-44
2023/12/03 10:52:32;;;;;;;18.35;16.65;;;0.50;1.00;;;;;;4885718;29;20567;-43
2023/12/03 10:54:58;;;;;;;18.42;16.50;;;0.50;1.00;;;;;;4883863;29;20179;-44
2023/12/03 10:57:28;;;;;;;18.70;16.90;;;0.50;1.00;;;;;;4883963;29;20194;-43
2023/12/03 11:00:01;;;;;;;18.05;16.35;;;0.50;1.00;;;;;;4885261;29;20994;-42
2023/12/03 11:02:32;;;;;;;20.35;18.35;;;0.50;1.00;;;;;;4885303;29;20176;-43
2023/12/03 11:05:04;;;;;;;17.25;15.75;;;0.50;1.00;;;;;;4885676;29;20219;-43
2023/12/03 11:07:32;;;;;;;18.75;17.15;;;0.50;1.00;;;;;;4885320;29;20218;-43
2023/12/03 11:09:57;;;;;;;18.85;17.05;;;0.50;1.00;;;;;;4883279;29;20191;-44
2023/12/03 11:12:24;;;;;;;16.70;15.07;;;0.60;1.00;;;;;;4885476;29;22124;-42
2023/12/03 11:14:51;;;;;;;18.75;16.85;;;0.60;1.00;;;;;;4866676;29;20201;-45
2023/12/03 11:17:25;;;;;;;19.30;17.52;;;0.70;1.00;;;;;;4884632;29;20193;-42
2023/12/03 11:19:55;;;;;;;19.85;17.90;;;0.70;1.00;;;;;;4885478;29;20201;-42
2023/12/03 11:22:44;;;;;;;18.10;16.40;;;0.70;1.00;;;;;;4884424;29;20223;-42
2023/12/03 11:25:16;;;;;;;19.13;17.33;;;0.70;1.00;;;;;;4885000;29;20309;-44
2023/12/03 11:27:43;;;;;;;18.75;16.95;;;0.70;1.00;;;;;;4885065;29;20230;-44
2023/12/03 11:30:10;;;;;;;18.25;16.77;;;0.80;1.00;;;;;;4885758;29;20189;-42
2023/12/03 11:32:36;;;;;;;18.40;16.70;;;0.70;1.00;;;;;;4874267;29;20195;-42
2023/12/03 11:35:05;;;;;;;19.58;17.88;;;0.80;1.00;;;;;;4884586;29;20198;-43
2023/12/03 11:37:31;;;;;;;18.67;17.05;;;0.80;1.00;;;;;;4885106;29;20187;-42
2023/12/03 11:40:12;;;;;;;19.83;17.80;;;0.80;1.00;;;;;;4884537;29;20552;-43
2023/12/03 11:42:50;;;;;;;17.77;16.25;;;0.80;1.00;;;;;;4884599;29;20689;-43
2023/12/03 11:45:25;;;;;;;20.08;18.35;;;0.80;1.00;;;;;;4884926;29;20762;-42
2023/12/03 11:48:10;;;;;;;20.58;18.83;;;0.80;1.00;;;;;;4882919;29;20689;-43
2023/12/03 11:50:36;;;;;;;20.38;18.52;;;0.90;1.00;;;;;;4883722;29;20179;-42
2023/12/03 11:53:04;;;;;;;20.27;18.27;;;1.00;1.00;;;;;;4883573;29;20202;-42
2023/12/03 11:55:35;;;;;;;81.50;47.13;;;1.00;1.00;;;;;;4851558;29;20646;-42
2023/12/03 11:58:04;;;;;;;21.42;19.13;;;0.90;1.00;;;;;;4883447;29;20282;-42
2023/12/03 12:00:31;;;;;;;20.58;18.40;;;1.00;1.00;;;;;;4883459;29;20202;-42
2023/12/03 12:02:58;;;;;;;21.90;19.55;;;0.90;1.00;;;;;;4883946;29;20222;-42
2023/12/03 12:05:24;;;;;;;21.25;19.23;;;1.00;1.00;;;;;;4884878;29;20191;-41
2023/12/03 12:08:03;;;;;;;19.53;17.70;;;0.90;1.00;;;;;;4884574;29;20198;-42
2023/12/03 12:10:31;;;;;;;19.42;17.63;;;1.00;1.00;;;;;;4883958;29;20259;-43
2023/12/03 12:12:58;;;;;;;20.92;18.73;;;1.00;1.00;;;;;;4885804;29;20590;-43
2023/12/03 12:15:24;;;;;;;20.90;18.90;;;1.00;1.00;;;;;;4888909;29;21108;-43
2023/12/03 12:17:50;;;;;;;19.50;17.60;;;1.00;1.00;;;;;;4887186;29;20195;-43
2023/12/03 12:20:22;;;;;;;20.40;18.50;;;1.00;1.00;;;;;;4888929;29;20251;-42
2023/12/03 12:22:50;;;;;;;21.45;19.42;;;1.00;1.00;;;;;;4887028;29;20183;-42
2023/12/03 12:25:15;;;;;;;19.63;17.90;;;0.90;1.00;;;;;;4886660;29;20199;-42
2023/12/03 12:27:42;;;;;;;19.80;18.00;;;0.90;1.00;;;;;;4888089;29;21037;-41
2023/12/03 12:30:08;;;;;;;20.38;18.48;;;0.90;1.00;;;;;;4888551;29;20611;-42
2023/12/03 12:32:34;;;;;;;21.13;19.25;;;0.80;1.00;;;;;;4879208;29;20191;-39
2023/12/03 12:35:02;;;;;;;23.50;21.00;;;0.80;8.50;;;;;;4887818;29;20786;-44
2023/12/03 12:37:28;;;;;;;22.73;20.55;;;0.90;14.30;;;;;;4885276;29;20770;-40
2023/12/03 12:40:08;;;;;;;23.23;20.97;;;0.90;22.60;;;;;;4886614;29;20187;-41
2023/12/03 12:42:34;;;;;;;26.60;23.90;;;0.90;26.80;;;;;;4870844;29;20183;-40
2023/12/03 12:44:59;;;;;;;23.73;21.60;;;1.00;32.50;;;;;;4888245;29;20202;-46